JAL2088 ROAH-RJOO
Flight info
| Callsign | JAL2088 |
|---|---|
| Flight time | 1h 29m |
| Altitude | 41000 |
| Route | AMAMI Y53 MADOG Y753 IZUMI |
| Aircraft | A359/H-SDE2E3GHIJ3J4J5LM1ORWXY/LB1D1 |
Departure
| Time | 2026-04-23 09:53 |
|---|---|
| Airport | Naha International Airport (ROAH) |
Arrival
| Time | 2026-04-23 11:23 |
|---|---|
| Airport | Osaka Itami International Airport (RJOO) |
| Time | Latitude | Longitude | Altitude | Speed | Heading |
|---|---|---|---|---|---|
| 2026-04-23 09:37 | 26.20432 | 127.64933 | 27 ft | 0 kts | 28° |
| 2026-04-23 09:45 | 26.20418 | 127.64925 | 14 ft | 4 kts | 25° |
| 2026-04-23 09:45 | 26.20397 | 127.64915 | 31 ft | 4 kts | 11° |
| 2026-04-23 09:45 | 26.20380 | 127.64914 | 26 ft | 4 kts | 340° |
| 2026-04-23 09:46 | 26.20358 | 127.64938 | 26 ft | 4 kts | 278° |
| 2026-04-23 09:46 | 26.20357 | 127.64957 | 24 ft | 4 kts | 268° |
| 2026-04-23 09:46 | 26.20358 | 127.64984 | 24 ft | 1 kts | 268° |
| 2026-04-23 09:48 | 26.20357 | 127.64955 | 24 ft | 15 kts | 268° |
| 2026-04-23 09:48 | 26.20349 | 127.64779 | 27 ft | 24 kts | 264° |
| 2026-04-23 09:49 | 26.20340 | 127.64739 | 25 ft | 0 kts | 236° |
| 2026-04-23 09:49 | 26.20278 | 127.64724 | 24 ft | 20 kts | 172° |
| 2026-04-23 09:49 | 26.20100 | 127.64770 | 26 ft | 27 kts | 177° |
| 2026-04-23 09:49 | 26.19917 | 127.64779 | 26 ft | 26 kts | 177° |
| 2026-04-23 09:50 | 26.19718 | 127.64787 | 26 ft | 30 kts | 178° |
| 2026-04-23 09:50 | 26.19518 | 127.64798 | 26 ft | 28 kts | 177° |
| 2026-04-23 09:50 | 26.19330 | 127.64806 | 26 ft | 26 kts | 178° |
| 2026-04-23 09:50 | 26.19130 | 127.64815 | 24 ft | 28 kts | 176° |
| 2026-04-23 09:51 | 26.18941 | 127.64826 | 26 ft | 26 kts | 177° |
| 2026-04-23 09:51 | 26.18756 | 127.64833 | 26 ft | 30 kts | 178° |
| 2026-04-23 09:51 | 26.18553 | 127.64842 | 26 ft | 28 kts | 178° |
| 2026-04-23 09:51 | 26.18365 | 127.64851 | 26 ft | 25 kts | 177° |
| 2026-04-23 09:52 | 26.18255 | 127.64831 | 25 ft | 6 kts | 225° |
| 2026-04-23 09:52 | 26.18246 | 127.64795 | 27 ft | 8 kts | 262° |
| 2026-04-23 09:52 | 26.18244 | 127.64695 | 25 ft | 12 kts | 283° |
| 2026-04-23 09:52 | 26.18284 | 127.64654 | 26 ft | 8 kts | 338° |
| 2026-04-23 09:53 | 26.18335 | 127.64647 | 24 ft | 7 kts | 356° |
| 2026-04-23 09:53 | 26.18577 | 127.64634 | 26 ft | 82 kts | 358° |
| 2026-04-23 09:53 | 26.19477 | 127.64594 | 27 ft | 175 kts | 357° |
| 2026-04-23 09:53 | 26.20848 | 127.64535 | 639 ft | 211 kts | 356° |
| 2026-04-23 09:54 | 26.22386 | 127.64453 | 1670 ft | 232 kts | 353° |
| 2026-04-23 09:54 | 26.24063 | 127.64362 | 2262 ft | 250 kts | 352° |
| 2026-04-23 09:54 | 26.25737 | 127.63843 | 2925 ft | 253 kts | 330° |
| 2026-04-23 09:54 | 26.27316 | 127.62914 | 3682 ft | 259 kts | 326° |
| 2026-04-23 09:55 | 26.28914 | 127.61911 | 4402 ft | 268 kts | 325° |
| 2026-04-23 09:55 | 26.30554 | 127.60890 | 5245 ft | 269 kts | 326° |
| 2026-04-23 09:55 | 26.32195 | 127.59878 | 6136 ft | 271 kts | 326° |
| 2026-04-23 09:55 | 26.33874 | 127.58892 | 6918 ft | 276 kts | 330° |
| 2026-04-23 09:56 | 26.35755 | 127.58307 | 7748 ft | 288 kts | 349° |
| 2026-04-23 09:56 | 26.37777 | 127.58559 | 8623 ft | 302 kts | 15° |
| 2026-04-23 09:56 | 26.39601 | 127.59789 | 9544 ft | 311 kts | 35° |
| 2026-04-23 09:56 | 26.41284 | 127.61360 | 10263 ft | 322 kts | 38° |
| 2026-04-23 09:57 | 26.43032 | 127.63040 | 10640 ft | 343 kts | 38° |
| 2026-04-23 09:57 | 26.44901 | 127.64831 | 11031 ft | 362 kts | 38° |
| 2026-04-23 09:57 | 26.46841 | 127.66683 | 11641 ft | 371 kts | 38° |
| 2026-04-23 09:57 | 26.48821 | 127.68569 | 12357 ft | 376 kts | 37° |
| 2026-04-23 09:58 | 26.50824 | 127.70475 | 13119 ft | 381 kts | 37° |
| 2026-04-23 09:58 | 26.52853 | 127.72402 | 13830 ft | 385 kts | 37° |
| 2026-04-23 09:58 | 26.54909 | 127.74355 | 14448 ft | 390 kts | 37° |
| 2026-04-23 09:58 | 26.56988 | 127.76329 | 15075 ft | 394 kts | 37° |
| 2026-04-23 09:59 | 26.59092 | 127.78327 | 15722 ft | 398 kts | 37° |
| 2026-04-23 09:59 | 26.61194 | 127.80325 | 16277 ft | 405 kts | 37° |
| 2026-04-23 09:59 | 26.63352 | 127.82376 | 16878 ft | 409 kts | 37° |
| 2026-04-23 09:59 | 26.65530 | 127.84448 | 17494 ft | 413 kts | 37° |
| 2026-04-23 10:00 | 26.67733 | 127.86544 | 18097 ft | 417 kts | 37° |
| 2026-04-23 10:00 | 26.69956 | 127.88660 | 18604 ft | 422 kts | 37° |
| 2026-04-23 10:00 | 26.72204 | 127.90802 | 19137 ft | 426 kts | 37° |
| 2026-04-23 10:00 | 26.74471 | 127.92963 | 19660 ft | 430 kts | 37° |
| 2026-04-23 10:01 | 26.76763 | 127.95148 | 20208 ft | 434 kts | 37° |
| 2026-04-23 10:01 | 26.79036 | 127.97318 | 20743 ft | 438 kts | 37° |
| 2026-04-23 10:01 | 26.81369 | 127.99544 | 21262 ft | 442 kts | 37° |
| 2026-04-23 10:01 | 26.83724 | 128.01794 | 21793 ft | 447 kts | 37° |
| 2026-04-23 10:02 | 26.86097 | 128.04062 | 22320 ft | 451 kts | 37° |
| 2026-04-23 10:02 | 26.88490 | 128.06351 | 22841 ft | 455 kts | 37° |
| 2026-04-23 10:02 | 26.90914 | 128.08670 | 23345 ft | 459 kts | 37° |
| 2026-04-23 10:02 | 26.93354 | 128.11006 | 23781 ft | 463 kts | 37° |
| 2026-04-23 10:03 | 26.95813 | 128.13362 | 24244 ft | 467 kts | 37° |
| 2026-04-23 10:03 | 26.98292 | 128.15738 | 24667 ft | 472 kts | 36° |
| 2026-04-23 10:03 | 27.00799 | 128.18143 | 25144 ft | 476 kts | 36° |
| 2026-04-23 10:03 | 27.03317 | 128.20560 | 25661 ft | 478 kts | 36° |
| 2026-04-23 10:04 | 27.05850 | 128.22993 | 26177 ft | 481 kts | 36° |
| 2026-04-23 10:04 | 27.08404 | 128.25447 | 26655 ft | 484 kts | 36° |
| 2026-04-23 10:04 | 27.10972 | 128.27916 | 27160 ft | 488 kts | 36° |
| 2026-04-23 10:04 | 27.13556 | 128.30402 | 27621 ft | 491 kts | 36° |
| 2026-04-23 10:05 | 27.16163 | 128.32912 | 28112 ft | 495 kts | 36° |
| 2026-04-23 10:05 | 27.18779 | 128.35432 | 28582 ft | 498 kts | 36° |
| 2026-04-23 10:05 | 27.21419 | 128.37977 | 29054 ft | 502 kts | 36° |
| 2026-04-23 10:05 | 27.24049 | 128.40515 | 29516 ft | 505 kts | 36° |
| 2026-04-23 10:06 | 27.26723 | 128.43095 | 29956 ft | 508 kts | 36° |
| 2026-04-23 10:06 | 27.29411 | 128.45691 | 30325 ft | 512 kts | 36° |
| 2026-04-23 10:06 | 27.32125 | 128.48314 | 30678 ft | 515 kts | 35° |
| 2026-04-23 10:06 | 27.34859 | 128.50958 | 30997 ft | 520 kts | 34° |
| 2026-04-23 10:07 | 27.37616 | 128.53626 | 31337 ft | 524 kts | 34° |
| 2026-04-23 10:07 | 27.40388 | 128.56310 | 31713 ft | 527 kts | 34° |
| 2026-04-23 10:07 | 27.43171 | 128.59008 | 32047 ft | 530 kts | 34° |
| 2026-04-23 10:07 | 27.45970 | 128.61722 | 32394 ft | 533 kts | 34° |
| 2026-04-23 10:08 | 27.48786 | 128.64456 | 32725 ft | 536 kts | 34° |
| 2026-04-23 10:08 | 27.51615 | 128.67204 | 33081 ft | 538 kts | 34° |
| 2026-04-23 10:08 | 27.54458 | 128.69967 | 33423 ft | 540 kts | 34° |
| 2026-04-23 10:09 | 27.60141 | 128.75497 | 34007 ft | 545 kts | 33° |
| 2026-04-23 10:09 | 27.63018 | 128.78299 | 34279 ft | 547 kts | 33° |
| 2026-04-23 10:09 | 27.65897 | 128.81105 | 34610 ft | 547 kts | 33° |
| 2026-04-23 10:09 | 27.68778 | 128.83919 | 35007 ft | 546 kts | 33° |
| 2026-04-23 10:10 | 27.71644 | 128.86718 | 35396 ft | 545 kts | 33° |
| 2026-04-23 10:10 | 27.74507 | 128.89516 | 35747 ft | 544 kts | 32° |
| 2026-04-23 10:10 | 27.77363 | 128.92308 | 36120 ft | 543 kts | 32° |
| 2026-04-23 10:10 | 27.80219 | 128.95102 | 36456 ft | 542 kts | 32° |
| 2026-04-23 10:11 | 27.83074 | 128.97897 | 36785 ft | 542 kts | 32° |
| 2026-04-23 10:11 | 27.85922 | 129.00687 | 37159 ft | 541 kts | 32° |
| 2026-04-23 10:11 | 27.88758 | 129.03467 | 37480 ft | 540 kts | 32° |
| 2026-04-23 10:11 | 27.91597 | 129.06253 | 37794 ft | 540 kts | 31° |
| 2026-04-23 10:12 | 27.94433 | 129.09037 | 38106 ft | 539 kts | 31° |
| 2026-04-23 10:12 | 27.97222 | 129.11778 | 38418 ft | 538 kts | 31° |
| 2026-04-23 10:12 | 28.00041 | 129.14549 | 38677 ft | 537 kts | 31° |
| 2026-04-23 10:12 | 28.02857 | 129.17320 | 38931 ft | 536 kts | 31° |
| 2026-04-23 10:13 | 28.05669 | 129.20088 | 39169 ft | 535 kts | 31° |
| 2026-04-23 10:13 | 28.08478 | 129.22856 | 39402 ft | 534 kts | 32° |
| 2026-04-23 10:13 | 28.11283 | 129.25621 | 39638 ft | 533 kts | 32° |
| 2026-04-23 10:13 | 28.14075 | 129.28377 | 39874 ft | 532 kts | 32° |
| 2026-04-23 10:14 | 28.16869 | 129.31135 | 40086 ft | 532 kts | 32° |
| 2026-04-23 10:14 | 28.19663 | 129.33895 | 40347 ft | 531 kts | 32° |
| 2026-04-23 10:14 | 28.22443 | 129.36642 | 40532 ft | 531 kts | 32° |
| 2026-04-23 10:14 | 28.25227 | 129.39398 | 40720 ft | 531 kts | 32° |
| 2026-04-23 10:15 | 28.30817 | 129.44933 | 40813 ft | 536 kts | 32° |
| 2026-04-23 10:15 | 28.36458 | 129.50528 | 40806 ft | 539 kts | 32° |
| 2026-04-23 10:16 | 28.42068 | 129.56105 | 40802 ft | 540 kts | 32° |
| 2026-04-23 10:16 | 28.48011 | 129.61153 | 40801 ft | 529 kts | 24° |
| 2026-04-23 10:17 | 28.54176 | 129.65685 | 40804 ft | 526 kts | 22° |
| 2026-04-23 10:17 | 28.60374 | 129.70148 | 40803 ft | 528 kts | 22° |
| 2026-04-23 10:18 | 28.66572 | 129.74652 | 40803 ft | 529 kts | 23° |
| 2026-04-23 10:18 | 28.72765 | 129.79194 | 40823 ft | 529 kts | 23° |
| 2026-04-23 10:19 | 28.78919 | 129.83724 | 40801 ft | 530 kts | 23° |
| 2026-04-23 10:19 | 28.85119 | 129.88295 | 40796 ft | 530 kts | 23° |
| 2026-04-23 10:20 | 28.91069 | 129.92685 | 40826 ft | 530 kts | 23° |
| 2026-04-23 10:20 | 28.97274 | 129.97268 | 40797 ft | 532 kts | 23° |
| 2026-04-23 10:21 | 29.03483 | 130.01860 | 40798 ft | 532 kts | 23° |
| 2026-04-23 10:21 | 29.09691 | 130.06461 | 40810 ft | 532 kts | 23° |
| 2026-04-23 10:22 | 29.15900 | 130.11068 | 40784 ft | 532 kts | 23° |
| 2026-04-23 10:22 | 29.22118 | 130.15688 | 40786 ft | 532 kts | 23° |
| 2026-04-23 10:23 | 29.28328 | 130.20308 | 40789 ft | 533 kts | 23° |
| 2026-04-23 10:23 | 29.34511 | 130.24915 | 40779 ft | 534 kts | 23° |
| 2026-04-23 10:24 | 29.40733 | 130.29560 | 40776 ft | 533 kts | 24° |
| 2026-04-23 10:24 | 29.46953 | 130.34211 | 40777 ft | 533 kts | 24° |
| 2026-04-23 10:25 | 29.53168 | 130.38863 | 40777 ft | 533 kts | 24° |
| 2026-04-23 10:25 | 29.59376 | 130.43517 | 40774 ft | 533 kts | 24° |
| 2026-04-23 10:26 | 29.65590 | 130.48180 | 40755 ft | 534 kts | 24° |
| 2026-04-23 10:26 | 29.71808 | 130.52856 | 40765 ft | 533 kts | 24° |
| 2026-04-23 10:27 | 29.78015 | 130.57531 | 40799 ft | 533 kts | 24° |
| 2026-04-23 10:27 | 29.84239 | 130.62224 | 40763 ft | 535 kts | 24° |
| 2026-04-23 10:28 | 29.90429 | 130.66897 | 40755 ft | 535 kts | 24° |
| 2026-04-23 10:28 | 29.96656 | 130.71609 | 40766 ft | 536 kts | 24° |
| 2026-04-23 10:29 | 30.02898 | 130.76338 | 40746 ft | 536 kts | 24° |
| 2026-04-23 10:29 | 30.09137 | 130.81073 | 40747 ft | 536 kts | 24° |
| 2026-04-23 10:30 | 30.14305 | 130.85033 | 40748 ft | 540 kts | 26° |
| 2026-04-23 10:30 | 30.20128 | 130.90723 | 40742 ft | 552 kts | 34° |
| 2026-04-23 10:31 | 30.25695 | 130.96868 | 40742 ft | 554 kts | 37° |
| 2026-04-23 10:31 | 30.31210 | 131.03103 | 40739 ft | 555 kts | 37° |
| 2026-04-23 10:32 | 30.36751 | 131.09337 | 40743 ft | 555 kts | 36° |
| 2026-04-23 10:32 | 30.42306 | 131.15557 | 40728 ft | 555 kts | 36° |
| 2026-04-23 10:33 | 30.47851 | 131.21765 | 40740 ft | 555 kts | 36° |
| 2026-04-23 10:33 | 30.53408 | 131.27994 | 40732 ft | 555 kts | 36° |
| 2026-04-23 10:34 | 30.58922 | 131.34187 | 40745 ft | 555 kts | 36° |
| 2026-04-23 10:34 | 30.64472 | 131.40432 | 40729 ft | 555 kts | 37° |
| 2026-04-23 10:35 | 30.70011 | 131.46676 | 40730 ft | 555 kts | 37° |
| 2026-04-23 10:35 | 30.75559 | 131.52942 | 40733 ft | 556 kts | 37° |
| 2026-04-23 10:36 | 30.81108 | 131.59217 | 40723 ft | 557 kts | 37° |
| 2026-04-23 10:36 | 30.86656 | 131.65502 | 40733 ft | 557 kts | 37° |
| 2026-04-23 10:37 | 30.92201 | 131.71797 | 40730 ft | 557 kts | 36° |
| 2026-04-23 10:37 | 30.97747 | 131.78101 | 40725 ft | 557 kts | 37° |
| 2026-04-23 10:38 | 31.03295 | 131.84421 | 40733 ft | 557 kts | 37° |
| 2026-04-23 10:38 | 31.08803 | 131.90705 | 40738 ft | 557 kts | 37° |
| 2026-04-23 10:39 | 31.14343 | 131.97035 | 40735 ft | 557 kts | 37° |
| 2026-04-23 10:39 | 31.19874 | 132.03366 | 40738 ft | 556 kts | 37° |
| 2026-04-23 10:40 | 31.25401 | 132.09705 | 40738 ft | 556 kts | 37° |
| 2026-04-23 10:40 | 31.30921 | 132.16045 | 40769 ft | 556 kts | 37° |
| 2026-04-23 10:41 | 31.36402 | 132.22351 | 40737 ft | 556 kts | 37° |
| 2026-04-23 10:41 | 31.41916 | 132.28707 | 40744 ft | 556 kts | 37° |
| 2026-04-23 10:42 | 31.47431 | 132.35075 | 40746 ft | 557 kts | 37° |
| 2026-04-23 10:42 | 31.52955 | 132.41465 | 40725 ft | 557 kts | 37° |
| 2026-04-23 10:43 | 31.58465 | 132.47850 | 40777 ft | 557 kts | 37° |
| 2026-04-23 10:43 | 31.63982 | 132.54253 | 40743 ft | 558 kts | 37° |
| 2026-04-23 10:44 | 31.69464 | 132.60628 | 40743 ft | 558 kts | 37° |
| 2026-04-23 10:44 | 31.74983 | 132.67057 | 40746 ft | 558 kts | 38° |
| 2026-04-23 10:45 | 31.80496 | 132.73491 | 40741 ft | 559 kts | 38° |
| 2026-04-23 10:45 | 31.86009 | 132.79935 | 40754 ft | 559 kts | 38° |
| 2026-04-23 10:46 | 31.91523 | 132.86393 | 40736 ft | 560 kts | 38° |
| 2026-04-23 10:46 | 31.97044 | 132.92869 | 40736 ft | 560 kts | 38° |
| 2026-04-23 10:47 | 32.02561 | 132.99354 | 40738 ft | 560 kts | 38° |
| 2026-04-23 10:47 | 32.08048 | 133.05814 | 40733 ft | 561 kts | 38° |
| 2026-04-23 10:48 | 32.13563 | 133.12321 | 40747 ft | 561 kts | 38° |
| 2026-04-23 10:48 | 32.19080 | 133.18840 | 40723 ft | 561 kts | 38° |
| 2026-04-23 10:49 | 32.24598 | 133.25373 | 40724 ft | 561 kts | 38° |
| 2026-04-23 10:49 | 32.30104 | 133.31905 | 40729 ft | 560 kts | 38° |
| 2026-04-23 10:50 | 32.35586 | 133.38418 | 40721 ft | 560 kts | 38° |
| 2026-04-23 10:50 | 32.41085 | 133.44965 | 40716 ft | 560 kts | 38° |
| 2026-04-23 10:51 | 32.46583 | 133.51521 | 40724 ft | 561 kts | 38° |
| 2026-04-23 10:51 | 32.52046 | 133.58047 | 40763 ft | 561 kts | 38° |
| 2026-04-23 10:52 | 32.54795 | 133.61336 | 40607 ft | 560 kts | 38° |
| 2026-04-23 10:52 | 32.57530 | 133.64613 | 40339 ft | 558 kts | 38° |
| 2026-04-23 10:52 | 32.60262 | 133.67890 | 40096 ft | 558 kts | 38° |
| 2026-04-23 10:52 | 32.63002 | 133.71173 | 39862 ft | 563 kts | 38° |
| 2026-04-23 10:53 | 32.65765 | 133.74486 | 39627 ft | 565 kts | 38° |
| 2026-04-23 10:53 | 32.68524 | 133.77802 | 39099 ft | 564 kts | 38° |
| 2026-04-23 10:53 | 32.71284 | 133.81124 | 38421 ft | 565 kts | 38° |
| 2026-04-23 10:53 | 32.74045 | 133.84449 | 37565 ft | 563 kts | 38° |
| 2026-04-23 10:54 | 32.76757 | 133.87729 | 36842 ft | 550 kts | 38° |
| 2026-04-23 10:54 | 32.79404 | 133.90936 | 36139 ft | 540 kts | 39° |
| 2026-04-23 10:54 | 32.82025 | 133.94106 | 35382 ft | 534 kts | 39° |
| 2026-04-23 10:54 | 32.84613 | 133.97234 | 34676 ft | 527 kts | 39° |
| 2026-04-23 10:55 | 32.87169 | 134.00324 | 34091 ft | 521 kts | 39° |
| 2026-04-23 10:55 | 32.89703 | 134.03388 | 33466 ft | 517 kts | 39° |
| 2026-04-23 10:55 | 32.92212 | 134.06424 | 32910 ft | 512 kts | 40° |
| 2026-04-23 10:55 | 32.94692 | 134.09431 | 32329 ft | 505 kts | 40° |
| 2026-04-23 10:56 | 32.97136 | 134.12399 | 31772 ft | 499 kts | 40° |
| 2026-04-23 10:56 | 32.99525 | 134.15302 | 31218 ft | 493 kts | 40° |
| 2026-04-23 10:56 | 33.01912 | 134.18206 | 30676 ft | 488 kts | 40° |
| 2026-04-23 10:56 | 33.04278 | 134.21085 | 30138 ft | 482 kts | 40° |
| 2026-04-23 10:57 | 33.06670 | 134.23832 | 29554 ft | 473 kts | 35° |
| 2026-04-23 10:57 | 33.09130 | 134.26420 | 29078 ft | 469 kts | 35° |
| 2026-04-23 10:57 | 33.11583 | 134.28949 | 28629 ft | 464 kts | 34° |
| 2026-04-23 10:57 | 33.14030 | 134.31446 | 28158 ft | 460 kts | 34° |
| 2026-04-23 10:58 | 33.16458 | 134.33914 | 27735 ft | 457 kts | 34° |
| 2026-04-23 10:58 | 33.18868 | 134.36364 | 27249 ft | 453 kts | 34° |
| 2026-04-23 10:58 | 33.21261 | 134.38801 | 26784 ft | 450 kts | 34° |
| 2026-04-23 10:58 | 33.23632 | 134.41222 | 26328 ft | 446 kts | 34° |
| 2026-04-23 10:59 | 33.25979 | 134.43622 | 25861 ft | 443 kts | 34° |
| 2026-04-23 10:59 | 33.28310 | 134.46011 | 25414 ft | 439 kts | 34° |
| 2026-04-23 10:59 | 33.30590 | 134.48349 | 24977 ft | 435 kts | 35° |
| 2026-04-23 10:59 | 33.32881 | 134.50700 | 24514 ft | 431 kts | 35° |
| 2026-04-23 11:00 | 33.35143 | 134.53024 | 24067 ft | 427 kts | 35° |
| 2026-04-23 11:00 | 33.37391 | 134.55335 | 23613 ft | 424 kts | 35° |
| 2026-04-23 11:00 | 33.39619 | 134.57627 | 23128 ft | 420 kts | 35° |
| 2026-04-23 11:00 | 33.41829 | 134.59902 | 22663 ft | 418 kts | 35° |
| 2026-04-23 11:01 | 33.44023 | 134.62161 | 22184 ft | 415 kts | 35° |
| 2026-04-23 11:01 | 33.46204 | 134.64408 | 21715 ft | 412 kts | 35° |
| 2026-04-23 11:01 | 33.48376 | 134.66649 | 21263 ft | 410 kts | 35° |
| 2026-04-23 11:01 | 33.50531 | 134.68872 | 20822 ft | 408 kts | 35° |
| 2026-04-23 11:02 | 33.52673 | 134.71083 | 20364 ft | 405 kts | 35° |
| 2026-04-23 11:02 | 33.54802 | 134.73283 | 19914 ft | 403 kts | 36° |
| 2026-04-23 11:02 | 33.56917 | 134.75471 | 19456 ft | 400 kts | 36° |
| 2026-04-23 11:02 | 33.59071 | 134.77547 | 18990 ft | 394 kts | 29° |
| 2026-04-23 11:03 | 33.61325 | 134.79385 | 18671 ft | 391 kts | 27° |
| 2026-04-23 11:03 | 33.63611 | 134.81141 | 18382 ft | 388 kts | 26° |
| 2026-04-23 11:03 | 33.65899 | 134.82840 | 18101 ft | 386 kts | 25° |
| 2026-04-23 11:03 | 33.68159 | 134.84492 | 17788 ft | 384 kts | 25° |
| 2026-04-23 11:04 | 33.70442 | 134.86155 | 17496 ft | 382 kts | 25° |
| 2026-04-23 11:04 | 33.72708 | 134.87809 | 17201 ft | 381 kts | 25° |
| 2026-04-23 11:04 | 33.74963 | 134.89461 | 16919 ft | 379 kts | 25° |
| 2026-04-23 11:04 | 33.77206 | 134.91111 | 16639 ft | 377 kts | 25° |
| 2026-04-23 11:05 | 33.79436 | 134.92756 | 16360 ft | 375 kts | 25° |
| 2026-04-23 11:05 | 33.81658 | 134.94399 | 16086 ft | 373 kts | 26° |
| 2026-04-23 11:05 | 33.83866 | 134.96035 | 15807 ft | 371 kts | 26° |
| 2026-04-23 11:05 | 33.86060 | 134.97662 | 15526 ft | 370 kts | 26° |
| 2026-04-23 11:06 | 33.90417 | 135.00891 | 14950 ft | 366 kts | 26° |
| 2026-04-23 11:06 | 33.92585 | 135.02497 | 14687 ft | 365 kts | 26° |
| 2026-04-23 11:06 | 33.94744 | 135.04097 | 14417 ft | 364 kts | 26° |
| 2026-04-23 11:07 | 33.96870 | 135.05675 | 14144 ft | 363 kts | 26° |
| 2026-04-23 11:07 | 33.99043 | 135.07289 | 13873 ft | 361 kts | 26° |
| 2026-04-23 11:07 | 34.01173 | 135.08872 | 13606 ft | 359 kts | 26° |
| 2026-04-23 11:07 | 34.03296 | 135.10451 | 13313 ft | 358 kts | 26° |
| 2026-04-23 11:08 | 34.05380 | 135.12002 | 13045 ft | 354 kts | 26° |
| 2026-04-23 11:08 | 34.07469 | 135.13559 | 12778 ft | 351 kts | 26° |
| 2026-04-23 11:08 | 34.09542 | 135.15104 | 12522 ft | 349 kts | 26° |
| 2026-04-23 11:08 | 34.11606 | 135.16644 | 12251 ft | 348 kts | 26° |
| 2026-04-23 11:09 | 34.13652 | 135.18172 | 11998 ft | 345 kts | 27° |
| 2026-04-23 11:09 | 34.15686 | 135.19690 | 11739 ft | 343 kts | 27° |
| 2026-04-23 11:09 | 34.17714 | 135.21205 | 11482 ft | 341 kts | 27° |
| 2026-04-23 11:09 | 34.19694 | 135.22688 | 11259 ft | 325 kts | 27° |
| 2026-04-23 11:10 | 34.21555 | 135.24090 | 10992 ft | 306 kts | 27° |
| 2026-04-23 11:10 | 34.23297 | 135.25442 | 10729 ft | 290 kts | 28° |
| 2026-04-23 11:10 | 34.24954 | 135.26800 | 10463 ft | 287 kts | 29° |
| 2026-04-23 11:10 | 34.26600 | 135.28156 | 10272 ft | 286 kts | 29° |
| 2026-04-23 11:11 | 34.28219 | 135.29486 | 10058 ft | 284 kts | 29° |
| 2026-04-23 11:11 | 34.29853 | 135.30824 | 9714 ft | 282 kts | 29° |
| 2026-04-23 11:11 | 34.31461 | 135.32158 | 9472 ft | 281 kts | 31° |
| 2026-04-23 11:11 | 34.32915 | 135.33771 | 9381 ft | 285 kts | 44° |
| 2026-04-23 11:12 | 34.34221 | 135.35542 | 9178 ft | 279 kts | 46° |
| 2026-04-23 11:12 | 34.35475 | 135.37319 | 8928 ft | 276 kts | 47° |
| 2026-04-23 11:12 | 34.36705 | 135.39093 | 8673 ft | 274 kts | 48° |
| 2026-04-23 11:12 | 34.37924 | 135.40860 | 8521 ft | 273 kts | 48° |
| 2026-04-23 11:13 | 34.39136 | 135.42619 | 8315 ft | 270 kts | 49° |
| 2026-04-23 11:13 | 34.40324 | 135.44348 | 7995 ft | 270 kts | 49° |
| 2026-04-23 11:13 | 34.41515 | 135.46091 | 7707 ft | 267 kts | 49° |
| 2026-04-23 11:13 | 34.42700 | 135.47823 | 7397 ft | 265 kts | 49° |
| 2026-04-23 11:14 | 34.43875 | 135.49548 | 7107 ft | 265 kts | 49° |
| 2026-04-23 11:14 | 34.45041 | 135.51265 | 6820 ft | 264 kts | 49° |
| 2026-04-23 11:14 | 34.46206 | 135.52981 | 6525 ft | 263 kts | 50° |
| 2026-04-23 11:14 | 34.47354 | 135.54678 | 6272 ft | 259 kts | 50° |
| 2026-04-23 11:15 | 34.48489 | 135.56346 | 5942 ft | 255 kts | 51° |
| 2026-04-23 11:15 | 34.49604 | 135.57988 | 5653 ft | 250 kts | 51° |
| 2026-04-23 11:15 | 34.50700 | 135.59585 | 5420 ft | 242 kts | 54° |
| 2026-04-23 11:15 | 34.51751 | 135.61142 | 5219 ft | 236 kts | 54° |
| 2026-04-23 11:16 | 34.52785 | 135.62667 | 4914 ft | 232 kts | 54° |
| 2026-04-23 11:16 | 34.53817 | 135.64134 | 4770 ft | 227 kts | 50° |
| 2026-04-23 11:16 | 34.55120 | 135.65194 | 4664 ft | 225 kts | 23° |
| 2026-04-23 11:16 | 34.56611 | 135.65448 | 4592 ft | 208 kts | 6° |
| 2026-04-23 11:17 | 34.58006 | 135.65443 | 4505 ft | 197 kts | 5° |
| 2026-04-23 11:17 | 34.59366 | 135.65340 | 4395 ft | 197 kts | 357° |
| 2026-04-23 11:17 | 34.60688 | 135.64821 | 4333 ft | 203 kts | 336° |
| 2026-04-23 11:17 | 34.61832 | 135.63804 | 4219 ft | 204 kts | 322° |
| 2026-04-23 11:18 | 34.62865 | 135.62574 | 4188 ft | 210 kts | 317° |
| 2026-04-23 11:18 | 34.63890 | 135.61324 | 3890 ft | 208 kts | 320° |
| 2026-04-23 11:18 | 34.64917 | 135.60098 | 3540 ft | 206 kts | 322° |
| 2026-04-23 11:18 | 34.65927 | 135.58881 | 3175 ft | 201 kts | 321° |
| 2026-04-23 11:19 | 34.66906 | 135.57685 | 2890 ft | 199 kts | 322° |
| 2026-04-23 11:19 | 34.67869 | 135.56522 | 2627 ft | 197 kts | 323° |
| 2026-04-23 11:19 | 34.68836 | 135.55353 | 2366 ft | 195 kts | 323° |
| 2026-04-23 11:19 | 34.69782 | 135.54204 | 2102 ft | 190 kts | 323° |
| 2026-04-23 11:20 | 34.70413 | 135.53441 | 1957 ft | 189 kts | 323° |
| 2026-04-23 11:20 | 34.71621 | 135.51974 | 1621 ft | 176 kts | 323° |
| 2026-04-23 11:20 | 34.72186 | 135.51286 | 1462 ft | 165 kts | 324° |
| 2026-04-23 11:20 | 34.72957 | 135.50357 | 1252 ft | 153 kts | 324° |
| 2026-04-23 11:21 | 34.73691 | 135.49468 | 1040 ft | 144 kts | 322° |
| 2026-04-23 11:21 | 34.74360 | 135.48628 | 858 ft | 135 kts | 320° |
| 2026-04-23 11:21 | 34.74990 | 135.47791 | 680 ft | 133 kts | 320° |
| 2026-04-23 11:21 | 34.75661 | 135.47013 | 513 ft | 133 kts | 314° |
| 2026-04-23 11:22 | 34.76337 | 135.46221 | 352 ft | 135 kts | 317° |
| 2026-04-23 11:22 | 34.77009 | 135.45415 | 154 ft | 135 kts | 319° |
| 2026-04-23 11:22 | 34.77664 | 135.44644 | 51 ft | 117 kts | 316° |
| 2026-04-23 11:22 | 34.78131 | 135.44083 | 48 ft | 72 kts | 315° |
| 2026-04-23 11:23 | 34.78410 | 135.43746 | 45 ft | 50 kts | 315° |
| 2026-04-23 11:23 | 34.78670 | 135.43520 | 48 ft | 38 kts | 335° |
| 2026-04-23 11:23 | 34.78897 | 135.43424 | 49 ft | 33 kts | 359° |
| 2026-04-23 11:23 | 34.79059 | 135.43545 | 48 ft | 24 kts | 77° |
| 2026-04-23 11:24 | 34.79064 | 135.43745 | 52 ft | 23 kts | 72° |
| 2026-04-23 11:24 | 34.79157 | 135.43830 | 52 ft | 13 kts | 27° |
| 2026-04-23 11:24 | 34.79170 | 135.43838 | 56 ft | 0 kts | 27° |